createdAt,value
2023-05-22T00:00:08.863Z,42.80
2023-05-22T00:01:08.903Z,42.83
2023-05-22T00:02:09.001Z,42.84
2023-05-22T00:03:09.065Z,42.87
2023-05-22T00:04:09.112Z,42.84
2023-05-22T00:05:09.163Z,42.81
2023-05-22T00:06:09.205Z,42.81
2023-05-22T00:07:09.285Z,42.87
2023-05-22T00:08:09.348Z,42.83
2023-05-22T00:09:09.422Z,42.86
2023-05-22T00:10:09.502Z,42.85
2023-05-22T00:11:09.526Z,42.84
2023-05-22T00:12:09.579Z,42.87
2023-05-22T00:13:09.647Z,42.86
2023-05-22T00:14:09.756Z,42.85
2023-05-22T00:15:09.767Z,42.84
2023-05-22T00:16:09.854Z,42.84
2023-05-22T00:17:09.914Z,42.86
2023-05-22T00:18:09.959Z,42.85
2023-05-22T00:19:10.036Z,42.85
2023-05-22T00:20:10.060Z,42.87
2023-05-22T00:21:10.110Z,42.86
2023-05-22T00:22:10.733Z,42.85
2023-05-22T00:23:10.445Z,42.85
2023-05-22T00:24:10.342Z,42.86
2023-05-22T00:25:10.424Z,42.87
2023-05-22T00:26:10.466Z,42.85
2023-05-22T00:27:10.479Z,42.84
2023-05-22T00:28:10.539Z,42.85
2023-05-22T00:29:10.584Z,42.88
2023-05-22T00:30:10.652Z,42.86
2023-05-22T00:31:11.248Z,42.86
2023-05-22T00:32:10.800Z,42.85
2023-05-22T00:33:10.842Z,42.85
2023-05-22T00:34:10.999Z,42.84
2023-05-22T00:35:10.966Z,42.82
2023-05-22T00:36:11.037Z,42.80
2023-05-22T00:37:11.088Z,42.83
2023-05-22T00:38:11.156Z,42.77
2023-05-22T00:39:11.283Z,42.77
2023-05-22T00:40:11.296Z,42.78
2023-05-22T00:41:12.245Z,42.78
2023-05-22T00:42:11.390Z,42.76
2023-05-22T00:43:11.452Z,42.75
2023-05-22T00:44:11.495Z,42.74
2023-05-22T00:45:11.555Z,42.72
2023-05-22T00:46:11.628Z,42.74
2023-05-22T00:47:11.689Z,42.72
2023-05-22T00:48:11.794Z,42.71
2023-05-22T00:49:11.865Z,42.72
2023-05-22T00:50:11.852Z,42.73
2023-05-22T00:51:11.904Z,42.74
2023-05-22T00:52:11.961Z,42.70
2023-05-22T00:53:12.024Z,42.73
2023-05-22T00:54:12.105Z,42.69
2023-05-22T00:55:12.212Z,42.70
2023-05-22T00:56:12.213Z,42.68
2023-05-22T00:57:12.274Z,42.70
2023-05-22T00:58:12.330Z,42.65
2023-05-22T00:59:12.384Z,42.67
2023-05-22T01:00:13.261Z,42.66
2023-05-22T01:01:12.560Z,42.67
2023-05-22T01:02:12.726Z,42.68
2023-05-22T01:03:12.702Z,42.66
2023-05-22T01:04:12.690Z,42.66
2023-05-22T01:05:12.786Z,42.67
2023-05-22T01:06:12.798Z,42.67
2023-05-22T01:07:12.854Z,42.67
2023-05-22T01:08:12.937Z,42.64
2023-05-22T01:09:12.958Z,42.63
2023-05-22T01:10:13.020Z,42.63
2023-05-22T01:11:13.099Z,42.64
2023-05-22T01:12:13.146Z,42.63
2023-05-22T01:13:13.204Z,42.62
2023-05-22T01:14:13.263Z,42.63
2023-05-22T01:15:13.317Z,42.62
2023-05-22T01:16:13.421Z,42.62
2023-05-22T01:17:13.764Z,42.62
2023-05-22T01:18:13.572Z,42.61
2023-05-22T01:19:13.580Z,42.61
2023-05-22T01:20:13.615Z,42.64
2023-05-22T01:21:13.677Z,42.61
2023-05-22T01:22:13.718Z,42.61
2023-05-22T01:23:13.764Z,42.62
2023-05-22T01:24:13.840Z,42.61
2023-05-22T01:25:13.868Z,42.58
2023-05-22T01:26:13.951Z,42.62
2023-05-22T01:27:13.992Z,42.59
2023-05-22T01:28:14.109Z,42.59
2023-05-22T01:29:14.100Z,42.61
2023-05-22T01:30:14.231Z,42.61
2023-05-22T01:31:14.218Z,42.59
2023-05-22T01:32:14.320Z,42.59
2023-05-22T01:33:14.416Z,42.61
2023-05-22T01:34:14.383Z,42.59
2023-05-22T01:35:14.439Z,42.62
2023-05-22T01:36:14.497Z,42.59
2023-05-22T01:37:14.557Z,42.58
2023-05-22T01:38:14.617Z,42.63
2023-05-22T01:39:14.713Z,42.62
2023-05-22T01:40:14.734Z,42.62
2023-05-22T01:41:14.858Z,42.61
2023-05-22T01:42:14.831Z,42.60
2023-05-22T01:43:14.898Z,42.61
2023-05-22T01:44:14.983Z,42.62
2023-05-22T01:45:15.020Z,42.60
2023-05-22T01:46:15.139Z,42.61
2023-05-22T01:47:15.127Z,42.61
2023-05-22T01:48:15.194Z,42.58
2023-05-22T01:49:15.261Z,42.61
2023-05-22T01:50:15.314Z,42.63
2023-05-22T01:51:15.432Z,42.62
2023-05-22T01:52:15.513Z,42.61
2023-05-22T01:53:15.495Z,42.62
2023-05-22T01:54:15.555Z,42.61
2023-05-22T01:55:15.617Z,42.62
2023-05-22T01:56:15.761Z,42.62
2023-05-22T01:57:15.736Z,42.63
2023-05-22T01:58:15.794Z,42.62
2023-05-22T01:59:15.849Z,42.64
2023-05-22T02:00:15.921Z,42.64
2023-05-22T02:01:16.002Z,42.62
2023-05-22T02:02:16.043Z,42.61
2023-05-22T02:03:16.279Z,42.63
2023-05-22T02:04:16.149Z,42.64
2023-05-22T02:05:16.204Z,42.64
2023-05-22T02:06:16.265Z,42.66
2023-05-22T02:07:16.788Z,42.65
2023-05-22T02:08:16.373Z,42.64
2023-05-22T02:09:16.427Z,42.64
2023-05-22T02:10:16.540Z,42.62
2023-05-22T02:11:16.565Z,42.67
2023-05-22T02:12:16.607Z,42.64
2023-05-22T02:13:16.657Z,42.66
2023-05-22T02:14:16.713Z,42.66
2023-05-22T02:15:16.772Z,42.65
2023-05-22T02:16:17.032Z,42.65
2023-05-22T02:17:16.912Z,42.66
2023-05-22T02:18:16.977Z,42.66
2023-05-22T02:19:17.106Z,42.69
2023-05-22T02:20:17.157Z,42.67
2023-05-22T02:21:17.146Z,42.67
2023-05-22T02:22:17.218Z,42.66
2023-05-22T02:23:17.299Z,42.69
2023-05-22T02:24:17.346Z,42.67
2023-05-22T02:25:17.739Z,42.66
2023-05-22T02:26:18.365Z,42.70
2023-05-22T02:27:17.591Z,42.66
2023-05-22T02:28:18.295Z,42.68
2023-05-22T02:29:17.663Z,42.70
2023-05-22T02:30:17.708Z,42.69
2023-05-22T02:31:17.793Z,42.70
2023-05-22T02:32:17.831Z,42.70
2023-05-22T02:33:17.899Z,42.66
2023-05-22T02:34:17.955Z,42.69
2023-05-22T02:35:18.015Z,42.67
2023-05-22T02:36:18.065Z,42.70
2023-05-22T02:37:18.138Z,42.69
2023-05-22T02:38:18.190Z,42.70
2023-05-22T02:39:18.252Z,42.69
2023-05-22T02:40:18.321Z,42.69
2023-05-22T02:41:18.375Z,42.70
2023-05-22T02:42:18.447Z,42.69
2023-05-22T02:43:18.501Z,42.71
2023-05-22T02:44:18.627Z,42.70
2023-05-22T02:45:18.634Z,42.69
2023-05-22T02:46:18.723Z,42.73
2023-05-22T02:47:18.756Z,42.70
2023-05-22T02:48:19.292Z,42.73
2023-05-22T02:49:19.305Z,42.70
2023-05-22T02:50:18.944Z,42.73
2023-05-22T02:51:19.033Z,42.71
2023-05-22T02:52:19.052Z,42.69
2023-05-22T02:53:19.160Z,42.71
2023-05-22T02:54:19.173Z,42.71
2023-05-22T02:55:19.241Z,42.72
2023-05-22T02:56:19.301Z,42.72
2023-05-22T02:57:19.358Z,42.72
2023-05-22T02:58:19.439Z,42.73
2023-05-22T02:59:19.491Z,42.72
2023-05-22T03:00:19.569Z,42.72
2023-05-22T03:01:19.626Z,42.72
2023-05-22T03:02:19.712Z,42.72
2023-05-22T03:03:19.766Z,42.71
2023-05-22T03:04:19.798Z,42.71
2023-05-22T03:05:28.673Z,42.72
2023-05-22T03:06:19.803Z,42.75
2023-05-22T03:07:19.802Z,42.72
2023-05-22T03:08:19.801Z,42.75
2023-05-22T03:09:19.788Z,42.74
2023-05-22T03:10:19.793Z,42.74
2023-05-22T03:11:19.770Z,42.72
2023-05-22T03:12:19.768Z,42.72
2023-05-22T03:13:19.759Z,42.72
2023-05-22T03:14:19.768Z,42.73
2023-05-22T03:15:19.747Z,42.71
2023-05-22T03:16:19.902Z,42.74
2023-05-22T03:17:19.735Z,42.73
2023-05-22T03:18:19.721Z,42.72
2023-05-22T03:19:19.766Z,42.73
2023-05-22T03:20:19.714Z,42.71
2023-05-22T03:21:19.712Z,42.71
2023-05-22T03:22:19.694Z,42.70
2023-05-22T03:23:19.682Z,42.72
2023-05-22T03:24:19.685Z,42.72
2023-05-22T03:25:19.663Z,42.73
2023-05-22T03:26:19.671Z,42.73
2023-05-22T03:27:19.658Z,42.72
2023-05-22T03:28:19.648Z,42.71
2023-05-22T03:29:19.659Z,42.71
2023-05-22T03:30:19.640Z,42.70
2023-05-22T03:31:19.628Z,42.70
2023-05-22T03:32:19.633Z,42.71
2023-05-22T03:33:19.618Z,42.69
2023-05-22T03:34:19.600Z,42.69
2023-05-22T03:35:19.605Z,42.70
2023-05-22T03:36:19.587Z,42.71
2023-05-22T03:37:19.573Z,42.71
2023-05-22T03:38:19.580Z,42.70
2023-05-22T03:39:19.561Z,42.69
2023-05-22T03:40:19.569Z,42.70
2023-05-22T03:41:19.551Z,42.70
2023-05-22T03:42:19.718Z,42.65
2023-05-22T03:43:19.551Z,42.71
2023-05-22T03:44:19.532Z,42.70
2023-05-22T03:45:19.523Z,42.68
2023-05-22T03:46:19.637Z,42.67
2023-05-22T03:47:19.610Z,42.69
2023-05-22T03:48:19.673Z,42.68
2023-05-22T03:49:19.712Z,42.65
2023-05-22T03:50:19.772Z,42.65
2023-05-22T03:51:20.471Z,42.63
2023-05-22T03:52:19.888Z,42.63
2023-05-22T03:53:19.946Z,42.64
2023-05-22T03:54:20.007Z,42.66
2023-05-22T03:55:20.059Z,42.62
2023-05-22T03:56:20.125Z,42.64
2023-05-22T03:57:20.220Z,42.60
2023-05-22T03:58:20.246Z,42.57
2023-05-22T03:59:20.298Z,42.59
2023-05-22T04:00:20.347Z,42.58
2023-05-22T04:01:20.407Z,42.58
2023-05-22T04:02:20.536Z,42.59
2023-05-22T04:03:20.564Z,42.59
2023-05-22T04:04:20.576Z,42.57
2023-05-22T04:05:20.740Z,42.54
2023-05-22T04:06:20.674Z,42.52
2023-05-22T04:07:20.721Z,42.53
2023-05-22T04:08:20.787Z,42.52
2023-05-22T04:09:20.841Z,42.50
2023-05-22T04:10:20.914Z,42.49
2023-05-22T04:11:20.966Z,42.46
2023-05-22T04:12:21.006Z,42.46
2023-05-22T04:13:21.067Z,42.45
2023-05-22T04:14:21.115Z,42.42
2023-05-22T04:15:21.152Z,42.42
2023-05-22T04:16:21.237Z,42.41
2023-05-22T04:17:21.288Z,42.41
2023-05-22T04:18:21.341Z,42.38
2023-05-22T04:19:21.425Z,42.37
2023-05-22T04:20:21.422Z,42.36
2023-05-22T04:21:21.479Z,42.34
2023-05-22T04:22:21.522Z,42.34
2023-05-22T04:23:21.564Z,42.33
2023-05-22T04:24:21.616Z,42.35
2023-05-22T04:25:21.676Z,42.33
2023-05-22T04:26:21.712Z,42.33
2023-05-22T04:27:21.765Z,42.30
2023-05-22T04:28:21.807Z,42.31
2023-05-22T04:29:21.877Z,42.26
2023-05-22T04:30:21.900Z,42.26
2023-05-22T04:31:21.984Z,42.27
2023-05-22T04:32:22.024Z,42.24
2023-05-22T04:33:22.054Z,42.27
2023-05-22T04:34:22.120Z,42.25
2023-05-22T04:35:22.152Z,42.27
2023-05-22T04:36:22.240Z,42.26
2023-05-22T04:37:22.246Z,42.24
2023-05-22T04:38:22.291Z,42.24
2023-05-22T04:39:22.342Z,42.24
2023-05-22T04:40:22.386Z,42.25
2023-05-22T04:41:22.794Z,42.24
2023-05-22T04:42:22.495Z,42.23
2023-05-22T04:43:22.527Z,42.25
2023-05-22T04:44:22.567Z,42.24
2023-05-22T04:45:22.627Z,42.22
2023-05-22T04:46:22.738Z,42.19
2023-05-22T04:47:22.794Z,42.21
2023-05-22T04:48:22.770Z,42.21
2023-05-22T04:49:22.817Z,42.19
2023-05-22T04:50:22.859Z,42.19
2023-05-22T04:51:22.878Z,42.18
2023-05-22T04:52:22.927Z,42.20
2023-05-22T04:53:22.942Z,42.22
2023-05-22T04:54:22.969Z,42.17
2023-05-22T04:55:23.007Z,42.20
2023-05-22T04:56:35.534Z,42.17
2023-05-22T04:57:24.850Z,42.18
2023-05-22T04:58:23.026Z,42.18
2023-05-22T04:59:23.005Z,42.20
2023-05-22T05:00:23.003Z,42.20
2023-05-22T05:01:23.016Z,42.17
2023-05-22T05:02:23.079Z,42.17
2023-05-22T05:03:23.036Z,42.17
2023-05-22T05:04:22.968Z,42.16
2023-05-22T05:05:22.979Z,42.17
2023-05-22T05:06:22.968Z,42.19
2023-05-22T05:07:22.968Z,42.15
2023-05-22T05:08:22.960Z,42.16
2023-05-22T05:09:22.974Z,42.15
2023-05-22T05:10:23.021Z,42.16
2023-05-22T05:11:23.082Z,42.15
2023-05-22T05:12:23.853Z,42.14
2023-05-22T05:13:23.167Z,42.14
2023-05-22T05:14:23.193Z,42.12
2023-05-22T05:15:23.220Z,42.09
2023-05-22T05:16:23.361Z,42.08
2023-05-22T05:17:23.306Z,42.00
2023-05-22T05:18:23.346Z,41.93
2023-05-22T05:19:23.457Z,41.92
2023-05-22T05:20:23.438Z,41.86
2023-05-22T05:21:23.489Z,41.82
2023-05-22T05:22:23.503Z,41.79
2023-05-22T05:23:23.532Z,41.82
2023-05-22T05:24:23.563Z,41.83
2023-05-22T05:25:23.610Z,41.86
2023-05-22T05:26:23.689Z,41.88
2023-05-22T05:27:23.673Z,41.84
2023-05-22T05:28:23.700Z,41.81
2023-05-22T05:29:23.752Z,41.85
2023-05-22T05:30:23.772Z,41.83
2023-05-22T05:31:23.844Z,42.33
2023-05-22T05:32:24.022Z,43.17
2023-05-22T05:33:23.865Z,42.99
2023-05-22T05:34:23.883Z,43.44
2023-05-22T05:35:24.878Z,43.49
2023-05-22T05:36:23.900Z,43.94
2023-05-22T05:37:23.909Z,44.14
2023-05-22T05:38:23.907Z,44.12
2023-05-22T05:39:23.917Z,44.01
2023-05-22T05:40:23.939Z,44.21
2023-05-22T05:41:23.979Z,44.37
2023-05-22T05:42:24.035Z,45.05
2023-05-22T05:43:24.103Z,44.83
2023-05-22T05:44:24.164Z,44.73
2023-05-22T05:45:24.234Z,44.84
2023-05-22T05:46:24.304Z,44.83
2023-05-22T05:47:24.412Z,44.80
2023-05-22T05:48:24.343Z,44.93
2023-05-22T05:49:24.383Z,45.19
2023-05-22T05:50:24.415Z,45.18
2023-05-22T05:51:24.452Z,45.25
2023-05-22T05:52:24.476Z,45.55
2023-05-22T05:53:24.507Z,45.55
2023-05-22T05:54:24.559Z,45.57
2023-05-22T05:55:24.648Z,45.76
2023-05-22T05:56:24.623Z,45.90
2023-05-22T05:57:24.632Z,46.03
2023-05-22T05:58:24.650Z,46.08
2023-05-22T05:59:24.691Z,46.21
2023-05-22T06:00:24.680Z,46.53
2023-05-22T06:01:24.663Z,46.57
2023-05-22T06:02:24.775Z,46.49
2023-05-22T06:03:25.505Z,46.62
2023-05-22T06:04:24.586Z,46.65
2023-05-22T06:05:24.631Z,46.77
2023-05-22T06:06:24.580Z,46.93
2023-05-22T06:07:24.575Z,47.16
2023-05-22T06:08:24.575Z,47.31
2023-05-22T06:09:24.573Z,47.26
2023-05-22T06:10:24.571Z,47.42
2023-05-22T06:11:24.544Z,47.49
2023-05-22T06:12:24.548Z,47.69
2023-05-22T06:13:24.534Z,47.82
2023-05-22T06:14:24.524Z,47.94
2023-05-22T06:15:24.513Z,47.92
2023-05-22T06:16:24.550Z,47.93
2023-05-22T06:17:24.522Z,48.08
2023-05-22T06:18:24.494Z,48.43
2023-05-22T06:19:24.557Z,48.69
2023-05-22T06:20:24.484Z,48.50
2023-05-22T06:21:24.482Z,48.39
2023-05-22T06:22:24.477Z,48.50
2023-05-22T06:23:24.509Z,48.80
2023-05-22T06:24:24.466Z,48.58
2023-05-22T06:25:24.450Z,48.46
2023-05-22T06:26:24.430Z,48.35
2023-05-22T06:27:24.431Z,48.26
2023-05-22T06:28:24.423Z,48.35
2023-05-22T06:29:24.419Z,48.40
2023-05-22T06:30:39.018Z,48.40
2023-05-22T06:31:25.407Z,48.46
2023-05-22T06:32:24.488Z,48.46
2023-05-22T06:33:24.412Z,48.45
2023-05-22T06:34:24.457Z,48.47
2023-05-22T06:35:24.372Z,48.48
2023-05-22T06:36:24.920Z,48.50
2023-05-22T06:37:24.369Z,48.49
2023-05-22T06:38:24.378Z,48.47
2023-05-22T06:39:24.356Z,48.43
2023-05-22T06:40:24.419Z,48.47
2023-05-22T06:41:24.340Z,48.44
2023-05-22T06:42:24.328Z,48.43
2023-05-22T06:43:24.318Z,48.41
2023-05-22T06:44:24.485Z,48.38
2023-05-22T06:45:24.306Z,48.38
2023-05-22T06:46:25.970Z,48.37
2023-05-22T06:47:24.339Z,48.36
2023-05-22T06:48:24.364Z,48.36
2023-05-22T06:49:24.392Z,48.38
2023-05-22T06:50:24.451Z,48.32
2023-05-22T06:51:24.526Z,48.32
2023-05-22T06:52:24.523Z,48.29
2023-05-22T06:53:24.556Z,48.30
2023-05-22T06:54:24.608Z,48.27
2023-05-22T06:55:24.651Z,48.27
2023-05-22T06:56:25.390Z,48.26
2023-05-22T06:57:24.742Z,48.22
2023-05-22T06:58:24.790Z,48.22
2023-05-22T06:59:25.858Z,48.22
2023-05-22T07:00:24.883Z,48.20
2023-05-22T07:01:25.038Z,48.19
2023-05-22T07:02:25.022Z,48.18
2023-05-22T07:03:25.029Z,48.17
2023-05-22T07:04:25.082Z,48.16
2023-05-22T07:05:25.148Z,48.15
2023-05-22T07:06:25.161Z,48.15
2023-05-22T07:07:25.210Z,48.16
2023-05-22T07:08:25.256Z,48.15
2023-05-22T07:09:25.301Z,48.15
2023-05-22T07:10:26.331Z,48.15
2023-05-22T07:11:25.402Z,48.13
2023-05-22T07:12:25.448Z,48.13
2023-05-22T07:13:25.491Z,48.16
2023-05-22T07:14:25.541Z,48.15
2023-05-22T07:15:25.600Z,48.11
2023-05-22T07:16:25.674Z,48.12
2023-05-22T07:17:25.735Z,48.10
2023-05-22T07:18:25.739Z,48.10
2023-05-22T07:19:25.937Z,48.09
2023-05-22T07:20:25.825Z,48.07
2023-05-22T07:21:25.879Z,48.01
2023-05-22T07:22:25.928Z,47.96
2023-05-22T07:23:26.911Z,47.92
2023-05-22T07:24:26.041Z,47.90
2023-05-22T07:25:26.094Z,47.91
2023-05-22T07:26:26.126Z,47.92
2023-05-22T07:27:26.266Z,47.87
2023-05-22T07:28:26.231Z,47.87
2023-05-22T07:29:26.839Z,47.89
2023-05-22T07:30:26.360Z,47.78
2023-05-22T07:31:26.385Z,47.83
2023-05-22T07:32:26.449Z,47.81
2023-05-22T07:33:26.506Z,47.85
2023-05-22T07:34:27.880Z,47.83
2023-05-22T07:35:26.552Z,47.84
2023-05-22T07:36:26.590Z,47.82
2023-05-22T07:37:26.669Z,47.82
2023-05-22T07:38:26.706Z,47.81
2023-05-22T07:39:27.428Z,47.80
2023-05-22T07:40:26.790Z,47.80
2023-05-22T07:41:33.836Z,47.81
2023-05-22T07:42:26.823Z,47.83
2023-05-22T07:43:26.814Z,47.83
2023-05-22T07:44:26.807Z,47.81
2023-05-22T07:45:26.814Z,47.84
2023-05-22T07:46:26.834Z,47.85
2023-05-22T07:47:26.834Z,47.85
2023-05-22T07:48:27.108Z,47.85
2023-05-22T07:49:26.767Z,47.87
2023-05-22T07:50:26.843Z,47.86
2023-05-22T07:51:26.768Z,47.84
2023-05-22T07:52:26.742Z,47.82
2023-05-22T07:53:26.750Z,47.84
2023-05-22T07:54:26.734Z,47.84
2023-05-22T07:55:26.784Z,47.82
2023-05-22T07:56:26.755Z,47.84
2023-05-22T07:57:26.731Z,47.81
2023-05-22T07:58:26.694Z,47.81
2023-05-22T07:59:26.698Z,47.80
2023-05-22T08:00:26.729Z,47.79
2023-05-22T08:01:26.687Z,47.83
2023-05-22T08:02:33.821Z,47.82
2023-05-22T08:03:26.745Z,47.82
2023-05-22T08:04:26.809Z,47.80
2023-05-22T08:05:26.655Z,47.83
2023-05-22T08:06:26.662Z,47.82
2023-05-22T08:07:26.636Z,47.80
2023-05-22T08:08:26.628Z,47.79
2023-05-22T08:09:26.615Z,47.78
2023-05-22T08:10:30.078Z,47.80
2023-05-22T08:11:27.598Z,47.76
2023-05-22T08:12:26.619Z,47.77
2023-05-22T08:13:26.573Z,47.76
2023-05-22T08:14:26.571Z,47.74
2023-05-22T08:15:26.575Z,47.71
2023-05-22T08:16:26.586Z,47.68
2023-05-22T08:17:26.582Z,47.65
2023-05-22T08:18:26.544Z,47.67
2023-05-22T08:19:26.647Z,47.72
2023-05-22T08:20:27.046Z,47.68
2023-05-22T08:21:26.683Z,47.71
2023-05-22T08:22:26.742Z,47.68
2023-05-22T08:23:26.834Z,47.67
2023-05-22T08:24:26.876Z,47.68
2023-05-22T08:25:26.924Z,47.64
2023-05-22T08:26:26.987Z,47.67
2023-05-22T08:27:27.057Z,47.64
2023-05-22T08:28:27.124Z,47.66
2023-05-22T08:29:27.197Z,47.67
2023-05-22T08:30:27.259Z,47.64
2023-05-22T08:31:27.353Z,47.63
2023-05-22T08:32:28.689Z,47.61
2023-05-22T08:33:27.498Z,47.66
2023-05-22T08:34:27.557Z,47.64
2023-05-22T08:35:27.578Z,47.61
2023-05-22T08:36:27.849Z,47.60
2023-05-22T08:37:27.703Z,47.57
2023-05-22T08:38:27.775Z,47.58
2023-05-22T08:39:27.819Z,47.56
2023-05-22T08:40:27.905Z,47.55
2023-05-22T08:41:27.945Z,47.56
2023-05-22T08:42:27.988Z,47.55
2023-05-22T08:43:28.049Z,47.53
2023-05-22T08:44:28.099Z,47.52
2023-05-22T08:45:28.152Z,47.51
2023-05-22T08:46:28.292Z,47.49
2023-05-22T08:47:28.286Z,47.48
2023-05-22T08:48:28.337Z,47.49
2023-05-22T08:49:28.390Z,47.45
2023-05-22T08:50:28.449Z,47.49
2023-05-22T08:51:28.510Z,47.43
2023-05-22T08:52:28.548Z,47.43
2023-05-22T08:53:28.604Z,47.43
2023-05-22T08:54:28.665Z,47.41
2023-05-22T08:55:28.739Z,47.39
2023-05-22T08:56:29.694Z,47.40
2023-05-22T08:57:28.842Z,47.37
2023-05-22T08:58:28.893Z,47.35
2023-05-22T08:59:28.960Z,47.39
2023-05-22T09:00:29.016Z,47.35
2023-05-22T09:01:29.120Z,47.35
2023-05-22T09:02:29.195Z,47.32
2023-05-22T09:03:29.259Z,47.32
2023-05-22T09:04:29.233Z,47.31
2023-05-22T09:05:29.305Z,47.35
2023-05-22T09:06:29.897Z,47.29
2023-05-22T09:07:29.434Z,47.26
2023-05-22T09:08:29.483Z,47.30
2023-05-22T09:09:29.541Z,47.44
2023-05-22T09:10:29.610Z,47.51
2023-05-22T09:11:29.693Z,47.40
2023-05-22T09:12:29.737Z,47.32
2023-05-22T09:13:29.801Z,47.31
2023-05-22T09:14:29.850Z,47.26
2023-05-22T09:15:29.917Z,47.27
2023-05-22T09:16:30.000Z,47.28
2023-05-22T09:17:30.178Z,47.26
2023-05-22T09:18:30.207Z,47.25
2023-05-22T09:19:30.227Z,47.25
2023-05-22T09:20:30.229Z,47.28
2023-05-22T09:21:30.775Z,47.23
2023-05-22T09:22:30.368Z,47.26
2023-05-22T09:23:30.420Z,47.24
2023-05-22T09:24:30.493Z,47.24
2023-05-22T09:25:30.512Z,47.19
2023-05-22T09:26:31.411Z,47.22
2023-05-22T09:27:30.538Z,47.18
2023-05-22T09:28:30.534Z,47.20
2023-05-22T09:29:30.538Z,47.21
2023-05-22T09:30:30.554Z,47.17
2023-05-22T09:31:30.733Z,47.18
2023-05-22T09:32:30.701Z,47.17
2023-05-22T09:33:30.580Z,47.16
2023-05-22T09:34:30.584Z,47.14
2023-05-22T09:35:30.593Z,47.12
2023-05-22T09:36:30.590Z,47.12
2023-05-22T09:37:30.607Z,47.08
2023-05-22T09:38:30.627Z,47.08
2023-05-22T09:39:30.634Z,47.06
2023-05-22T09:40:30.634Z,47.07
2023-05-22T09:41:30.637Z,47.05
2023-05-22T09:42:30.651Z,47.05
2023-05-22T09:43:30.685Z,47.04
2023-05-22T09:44:30.665Z,47.03
2023-05-22T09:45:30.676Z,47.02
2023-05-22T09:46:30.715Z,46.99
2023-05-22T09:47:30.722Z,46.99
2023-05-22T09:48:30.694Z,46.98
2023-05-22T09:49:30.698Z,46.99
2023-05-22T09:50:30.724Z,46.96
2023-05-22T09:51:30.713Z,46.93
2023-05-22T09:52:30.721Z,46.93
2023-05-22T09:53:30.725Z,46.93
2023-05-22T09:54:30.728Z,46.92
2023-05-22T09:55:30.748Z,46.89
2023-05-22T09:56:38.517Z,46.90
2023-05-22T09:57:31.729Z,46.89
2023-05-22T09:58:30.734Z,46.87
2023-05-22T09:59:30.706Z,46.86
2023-05-22T10:00:30.694Z,46.84
2023-05-22T10:01:30.739Z,46.80
2023-05-22T10:02:30.698Z,46.79
2023-05-22T10:03:30.675Z,46.79
2023-05-22T10:04:30.755Z,46.79
2023-05-22T10:05:30.668Z,46.76
2023-05-22T10:06:30.664Z,46.77
2023-05-22T10:07:30.656Z,46.75
2023-05-22T10:08:30.644Z,46.76
2023-05-22T10:09:30.754Z,46.75
2023-05-22T10:10:30.630Z,46.72
2023-05-22T10:11:30.611Z,46.70
2023-05-22T10:12:30.701Z,46.68
2023-05-22T10:13:30.606Z,46.65
2023-05-22T10:14:31.073Z,46.64
2023-05-22T10:15:30.653Z,46.62
2023-05-22T10:16:30.741Z,46.63
2023-05-22T10:17:30.813Z,46.62
2023-05-22T10:18:30.822Z,46.61
2023-05-22T10:19:30.979Z,46.60
2023-05-22T10:20:31.005Z,46.57
2023-05-22T10:21:31.029Z,46.56
2023-05-22T10:22:31.062Z,46.59
2023-05-22T10:23:31.146Z,46.55
2023-05-22T10:24:31.210Z,46.54
2023-05-22T10:25:31.255Z,46.53
2023-05-22T10:26:31.329Z,46.52
2023-05-22T10:27:31.385Z,46.50
2023-05-22T10:28:31.535Z,46.50
2023-05-22T10:29:31.509Z,46.50
2023-05-22T10:30:31.591Z,46.48
2023-05-22T10:31:31.629Z,46.47
2023-05-22T10:32:31.794Z,46.47
2023-05-22T10:33:31.821Z,46.45
2023-05-22T10:34:31.887Z,46.45
2023-05-22T10:35:31.882Z,46.44
2023-05-22T10:36:31.940Z,46.41
2023-05-22T10:37:32.003Z,46.43
2023-05-22T10:38:32.087Z,46.40
2023-05-22T10:39:32.132Z,46.39
2023-05-22T10:40:32.715Z,46.41
2023-05-22T10:41:32.263Z,46.42
2023-05-22T10:42:32.304Z,46.40
2023-05-22T10:43:32.380Z,46.38
2023-05-22T10:44:32.531Z,46.38
2023-05-22T10:45:32.850Z,46.36
2023-05-22T10:46:32.621Z,46.35
2023-05-22T10:47:32.632Z,46.35
2023-05-22T10:48:32.677Z,46.33
2023-05-22T10:49:32.736Z,46.33
2023-05-22T10:50:32.807Z,46.31
2023-05-22T10:51:32.874Z,46.29
2023-05-22T10:52:32.951Z,46.27
2023-05-22T10:53:33.001Z,46.25
2023-05-22T10:54:33.075Z,46.23
2023-05-22T10:55:33.131Z,46.25
2023-05-22T10:56:33.194Z,46.23
2023-05-22T10:57:33.246Z,46.19
2023-05-22T10:58:33.306Z,46.21
2023-05-22T10:59:33.378Z,46.17
2023-05-22T11:00:33.558Z,46.17
2023-05-22T11:01:33.507Z,46.15
2023-05-22T11:02:33.570Z,46.13
2023-05-22T11:03:33.716Z,46.13
2023-05-22T11:04:33.683Z,46.11
2023-05-22T11:05:33.721Z,46.07
2023-05-22T11:06:33.807Z,46.13
2023-05-22T11:07:33.849Z,46.10
2023-05-22T11:08:33.907Z,46.08
2023-05-22T11:09:33.995Z,46.09
2023-05-22T11:10:34.019Z,46.05
2023-05-22T11:11:34.103Z,46.04
2023-05-22T11:12:34.149Z,46.02
2023-05-22T11:13:34.335Z,46.01
2023-05-22T11:14:34.286Z,46.03
2023-05-22T11:15:34.406Z,46.04
2023-05-22T11:16:34.538Z,45.99
2023-05-22T11:17:34.471Z,45.99
2023-05-22T11:18:34.510Z,46.00
2023-05-22T11:19:34.587Z,45.95
2023-05-22T11:20:34.662Z,45.96
2023-05-22T11:21:34.666Z,45.92
2023-05-22T11:22:34.780Z,45.92
2023-05-22T11:23:34.795Z,45.92
2023-05-22T11:24:34.849Z,45.91
2023-05-22T11:25:34.932Z,45.91
2023-05-22T11:26:34.958Z,45.92
2023-05-22T11:27:35.006Z,45.91
2023-05-22T11:28:35.059Z,45.90
2023-05-22T11:29:35.127Z,45.85
2023-05-22T11:30:35.212Z,45.87
2023-05-22T11:31:35.269Z,45.84
2023-05-22T11:32:35.438Z,45.80
2023-05-22T11:33:35.360Z,45.82
2023-05-22T11:34:35.412Z,45.82
2023-05-22T11:35:35.471Z,45.80
2023-05-22T11:36:35.525Z,45.80
2023-05-22T11:37:35.582Z,45.78
2023-05-22T11:38:35.635Z,45.77
2023-05-22T11:39:35.692Z,45.75
2023-05-22T11:40:35.764Z,45.76
2023-05-22T11:41:35.837Z,45.74
2023-05-22T11:42:35.874Z,45.75
2023-05-22T11:43:35.938Z,45.71
2023-05-22T11:44:35.990Z,45.72
2023-05-22T11:45:36.057Z,45.72
2023-05-22T11:46:36.158Z,45.72
2023-05-22T11:47:36.207Z,45.68
2023-05-22T11:48:36.301Z,45.68
2023-05-22T11:49:36.288Z,45.67
2023-05-22T11:50:42.170Z,45.67
2023-05-22T11:51:37.335Z,45.67
2023-05-22T11:52:36.338Z,45.63
2023-05-22T11:53:36.308Z,45.64
2023-05-22T11:54:38.555Z,45.64
2023-05-22T11:55:36.550Z,45.62
2023-05-22T11:56:36.589Z,45.61
2023-05-22T11:57:36.657Z,45.61
2023-05-22T11:58:36.705Z,45.56
2023-05-22T11:59:36.748Z,45.55
2023-05-22T12:00:36.944Z,45.56
2023-05-22T12:01:36.877Z,45.56
2023-05-22T12:02:37.068Z,45.51
2023-05-22T12:03:37.045Z,45.56
2023-05-22T12:04:37.137Z,45.50
2023-05-22T12:05:37.111Z,45.51
2023-05-22T12:06:37.188Z,45.51
2023-05-22T12:07:37.191Z,45.49
2023-05-22T12:08:37.249Z,45.50
2023-05-22T12:09:37.297Z,45.48
2023-05-22T12:10:37.531Z,45.50
2023-05-22T12:11:37.423Z,45.49
2023-05-22T12:12:37.456Z,45.48
2023-05-22T12:13:37.507Z,45.46
2023-05-22T12:14:37.564Z,45.46
2023-05-22T12:15:37.608Z,45.45
2023-05-22T12:16:37.838Z,45.44
2023-05-22T12:17:37.808Z,45.42
2023-05-22T12:18:37.802Z,45.41
2023-05-22T12:19:37.816Z,45.40
2023-05-22T12:20:38.006Z,45.41
2023-05-22T12:21:37.895Z,45.39
2023-05-22T12:22:37.933Z,45.37
2023-05-22T12:23:38.002Z,45.37
2023-05-22T12:24:38.036Z,45.37
2023-05-22T12:25:38.099Z,45.38
2023-05-22T12:26:38.145Z,45.35
2023-05-22T12:27:38.636Z,45.35
2023-05-22T12:28:38.233Z,45.32
2023-05-22T12:29:38.267Z,45.31
2023-05-22T12:30:38.579Z,45.34
2023-05-22T12:31:38.459Z,45.29
2023-05-22T12:32:38.436Z,45.29
2023-05-22T12:33:38.523Z,45.27
2023-05-22T12:34:38.517Z,45.29
2023-05-22T12:35:38.546Z,45.25
2023-05-22T12:36:38.685Z,45.26
2023-05-22T12:37:38.640Z,45.25
2023-05-22T12:38:38.698Z,45.24
2023-05-22T12:39:38.738Z,45.21
2023-05-22T12:40:38.945Z,45.20
2023-05-22T12:41:38.833Z,45.21
2023-05-22T12:42:38.871Z,45.18
2023-05-22T12:43:38.926Z,45.17
2023-05-22T12:44:38.968Z,45.17
2023-05-22T12:45:39.025Z,45.16
2023-05-22T12:46:39.112Z,45.18
2023-05-22T12:47:39.131Z,45.13
2023-05-22T12:48:39.161Z,45.14
2023-05-22T12:49:39.214Z,45.12
2023-05-22T12:50:39.392Z,45.14
2023-05-22T12:51:39.309Z,45.14
2023-05-22T12:52:39.446Z,45.13